Terminal Aerodrome Forecast
Issued by NWS Goodland, KS

Home | Current Version | Previous Version | Text Only | Print | Product List | Glossary On
Versions: 1 2 3 4 5 6 7 8 9 10 11 12 13 14 15
166
FTUS43 KGLD 102345
TAFGLD
TAF
KGLD 102345Z 1100/1124 15009KT P6SM BKN120
     FM110800 30008KT P6SM BKN120
     FM111000 32008KT P6SM BKN120 WS010/35040KT
     FM111300 34012KT P6SM VCSH BKN040
     FM111600 35014G25KT P6SM BKN050
     FM112100 36008KT P6SM SCT050=

USA.gov is the U.S. government's official web portal to all federal, state and local government web resources and services.